createdAt,value
2023-05-20T00:00:32.748Z,81
2023-05-20T00:05:33.549Z,81
2023-05-20T00:10:21.828Z,80
2023-05-20T00:15:28.208Z,81
2023-05-20T00:20:18.224Z,81
2023-05-20T00:25:23.422Z,81
2023-05-20T00:30:29.882Z,81
2023-05-20T00:35:18.558Z,82
2023-05-20T00:40:26.131Z,82
2023-05-20T00:45:31.076Z,82
2023-05-20T00:50:19.839Z,82
2023-05-20T00:55:25.766Z,83
2023-05-20T01:00:33.052Z,83
2023-05-20T01:05:20.136Z,83
2023-05-20T01:10:26.257Z,83
2023-05-20T01:15:33.397Z,82
2023-05-20T01:20:21.078Z,83
2023-05-20T01:25:26.948Z,82
2023-05-20T01:30:25.503Z,83
2023-05-20T01:35:22.528Z,83
2023-05-20T01:40:28.184Z,83
2023-05-20T01:45:17.405Z,84
2023-05-20T01:50:23.695Z,84
2023-05-20T01:55:29.312Z,84
2023-05-20T02:00:21.725Z,84
2023-05-20T02:05:24.154Z,84
2023-05-20T02:10:29.813Z,85
2023-05-20T02:15:18.783Z,85
2023-05-20T02:20:25.819Z,85
2023-05-20T02:25:31.500Z,85
2023-05-20T02:30:20.867Z,86
2023-05-20T02:35:26.529Z,86
2023-05-20T02:40:32.616Z,86
2023-05-20T02:45:22.051Z,86
2023-05-20T02:50:27.695Z,86
2023-05-20T02:55:34.053Z,85
2023-05-20T03:00:23.048Z,86
2023-05-20T03:05:28.270Z,86
2023-05-20T03:10:17.201Z,86
2023-05-20T03:15:23.760Z,86
2023-05-20T03:20:28.793Z,86
2023-05-20T03:25:18.355Z,86
2023-05-20T03:30:24.616Z,86
2023-05-20T03:35:32.023Z,86
2023-05-20T03:40:20.703Z,86
2023-05-20T03:45:25.123Z,86
2023-05-20T03:50:31.074Z,86
2023-05-20T03:55:20.614Z,85
2023-05-20T04:00:31.225Z,85
2023-05-20T04:05:32.135Z,86
2023-05-20T04:10:21.069Z,85
2023-05-20T04:15:27.221Z,85
2023-05-20T04:20:32.988Z,85
2023-05-20T04:25:21.582Z,85
2023-05-20T04:30:27.692Z,85
2023-05-20T04:35:17.211Z,85
2023-05-20T04:40:22.826Z,85
2023-05-20T04:45:29.428Z,85
2023-05-20T04:50:18.408Z,84
2023-05-20T04:55:23.924Z,84
2023-05-20T05:00:31.401Z,83
2023-05-20T05:05:19.875Z,83
2023-05-20T05:10:25.502Z,83
2023-05-20T05:15:31.677Z,83
2023-05-20T05:20:20.157Z,82
2023-05-20T05:25:26.166Z,82
2023-05-20T05:30:18.238Z,81
2023-05-20T05:35:21.655Z,80
2023-05-20T05:40:27.269Z,79
2023-05-20T05:45:34.016Z,79
2023-05-20T05:50:22.762Z,78
2023-05-20T05:55:28.392Z,78
2023-05-20T06:00:20.631Z,78
2023-05-20T06:05:23.234Z,77
2023-05-20T06:10:28.895Z,76
2023-05-20T06:15:18.325Z,77
2023-05-20T06:20:25.502Z,76
2023-05-20T06:25:30.410Z,75
2023-05-20T06:30:19.397Z,74
2023-05-20T06:35:25.503Z,76
2023-05-20T06:40:32.778Z,76
2023-05-20T06:45:21.114Z,76
2023-05-20T06:50:26.661Z,75
2023-05-20T06:55:32.961Z,74
2023-05-20T07:00:22.377Z,75
2023-05-20T07:05:27.144Z,74
2023-05-20T07:10:33.839Z,73
2023-05-20T07:15:22.210Z,74
2023-05-20T07:20:27.781Z,74
2023-05-20T07:25:17.217Z,74
2023-05-20T07:30:22.805Z,75
2023-05-20T07:35:29.310Z,74
2023-05-20T07:40:18.211Z,73
2023-05-20T07:45:24.033Z,72
2023-05-20T07:50:30.570Z,73
2023-05-20T07:55:19.203Z,74
2023-05-20T08:00:28.692Z,74
2023-05-20T08:05:30.980Z,75
2023-05-20T08:10:19.710Z,74
2023-05-20T08:15:25.686Z,72
2023-05-20T08:20:32.736Z,73
2023-05-20T08:25:21.288Z,73
2023-05-20T08:30:27.767Z,72
2023-05-20T08:35:33.607Z,72
2023-05-20T08:40:22.474Z,72
2023-05-20T08:45:28.935Z,73
2023-05-20T08:50:17.579Z,73
2023-05-20T08:55:24.053Z,73
2023-05-20T09:00:30.380Z,72
2023-05-20T09:05:18.072Z,71
2023-05-20T09:10:24.673Z,71
2023-05-20T09:15:30.136Z,72
2023-05-20T09:20:20.274Z,72
2023-05-20T09:25:25.680Z,71
2023-05-20T09:30:30.819Z,72
2023-05-20T09:35:20.412Z,70
2023-05-20T09:40:27.677Z,71
2023-05-20T09:45:32.523Z,71
2023-05-20T09:50:21.470Z,72
2023-05-20T09:55:27.136Z,70
2023-05-20T10:00:36.593Z,70
2023-05-20T10:05:21.577Z,70
2023-05-20T10:10:27.696Z,70
2023-05-20T10:15:16.582Z,71
2023-05-20T10:20:23.308Z,70
2023-05-20T10:25:29.708Z,69
2023-05-20T10:30:18.229Z,68
2023-05-20T10:35:24.348Z,67
2023-05-20T10:40:30.851Z,67
2023-05-20T10:45:19.374Z,67
2023-05-20T10:50:25.570Z,67
2023-05-20T10:55:32.003Z,66
2023-05-20T11:00:22.470Z,66
2023-05-20T11:05:27.328Z,66
2023-05-20T11:10:32.610Z,65
2023-05-20T11:15:20.988Z,64
2023-05-20T11:20:27.481Z,63
2023-05-20T11:25:33.280Z,63
2023-05-20T11:30:21.641Z,63
2023-05-20T11:35:28.183Z,63
2023-05-20T11:40:18.558Z,63
2023-05-20T11:45:22.824Z,63
2023-05-20T11:50:29.333Z,62
2023-05-20T11:55:17.932Z,61
2023-05-20T12:00:29.261Z,60
2023-05-20T12:05:30.562Z,61
2023-05-20T12:10:19.561Z,61
2023-05-20T12:15:25.453Z,61
2023-05-20T12:20:31.046Z,60
2023-05-20T12:25:20.024Z,60
2023-05-20T12:30:26.480Z,59
2023-05-20T12:35:32.193Z,58
2023-05-20T12:40:21.257Z,59
2023-05-20T12:45:27.347Z,58
2023-05-20T12:50:34.009Z,57
2023-05-20T12:55:22.385Z,56
2023-05-20T13:00:30.162Z,56
2023-05-20T13:05:16.875Z,56
2023-05-20T13:10:22.847Z,55
2023-05-20T13:15:29.365Z,56
2023-05-20T13:20:19.870Z,56
2023-05-20T13:25:24.514Z,55
2023-05-20T13:30:31.343Z,56
2023-05-20T13:35:20.580Z,55
2023-05-20T13:40:26.347Z,55
2023-05-20T13:45:31.759Z,55
2023-05-20T13:50:20.856Z,55
2023-05-20T13:55:26.954Z,54
2023-05-20T14:00:37.135Z,54
2023-05-20T14:05:21.794Z,56
2023-05-20T14:10:27.288Z,55
2023-05-20T14:15:33.814Z,56
2023-05-20T14:20:22.008Z,56
2023-05-20T14:25:28.476Z,56
2023-05-20T14:30:17.040Z,56
2023-05-20T14:35:23.252Z,56
2023-05-20T14:40:29.607Z,56
2023-05-20T14:45:18.238Z,56
2023-05-20T14:50:24.852Z,57
2023-05-20T14:55:30.371Z,56
2023-05-20T15:00:21.284Z,57
2023-05-20T15:05:24.829Z,56
2023-05-20T15:10:31.244Z,56
2023-05-20T15:15:19.870Z,57
2023-05-20T15:20:25.637Z,56
2023-05-20T15:25:32.019Z,56
2023-05-20T15:30:20.591Z,56
2023-05-20T15:35:27.065Z,57
2023-05-20T15:40:34.318Z,56
2023-05-20T15:45:22.218Z,57
2023-05-20T15:50:27.938Z,57
2023-05-20T15:55:17.855Z,56
2023-05-20T16:00:28.416Z,55
2023-05-20T16:05:29.543Z,55
2023-05-20T16:10:19.037Z,56
2023-05-20T16:15:24.544Z,56
2023-05-20T16:20:30.172Z,56
2023-05-20T16:25:19.147Z,56
2023-05-20T16:30:25.203Z,56
2023-05-20T16:35:31.787Z,56
2023-05-20T16:40:20.678Z,56
2023-05-20T16:45:27.246Z,57
2023-05-20T16:50:32.935Z,57
2023-05-20T16:55:21.919Z,57
2023-05-20T17:00:28.797Z,58
2023-05-20T17:05:33.812Z,58
2023-05-20T17:10:22.001Z,59
2023-05-20T17:15:28.381Z,59
2023-05-20T17:20:17.740Z,59
2023-05-20T17:25:22.680Z,59
2023-05-20T17:30:28.730Z,59
2023-05-20T17:35:17.796Z,60
2023-05-20T17:40:24.977Z,60
2023-05-20T17:45:30.045Z,60
2023-05-20T17:50:19.375Z,60
2023-05-20T17:55:25.458Z,61
2023-05-20T18:00:35.718Z,61
2023-05-20T18:05:20.510Z,61
2023-05-20T18:10:26.499Z,61
2023-05-20T18:15:33.413Z,61
2023-05-20T18:20:21.066Z,61
2023-05-20T18:25:27.534Z,61
2023-05-20T18:30:33.942Z,62
2023-05-20T18:35:22.711Z,62
2023-05-20T18:40:28.328Z,62
2023-05-20T18:45:17.292Z,62
2023-05-20T18:50:23.877Z,63
2023-05-20T18:55:29.808Z,63
2023-05-20T19:00:20.046Z,63
2023-05-20T19:05:24.423Z,63
2023-05-20T19:10:30.110Z,64
2023-05-20T19:15:19.050Z,64
2023-05-20T19:20:25.886Z,65
2023-05-20T19:25:31.477Z,65
2023-05-20T19:30:20.989Z,66
2023-05-20T19:35:26.659Z,66
2023-05-20T19:40:33.409Z,66
2023-05-20T19:45:21.707Z,67
2023-05-20T19:50:27.789Z,67
2023-05-20T19:55:35.560Z,68
2023-05-20T20:00:24.766Z,68
2023-05-20T20:05:28.856Z,68
2023-05-20T20:10:17.427Z,69
2023-05-20T20:15:24.116Z,69
2023-05-20T20:20:29.464Z,70
2023-05-20T20:25:17.956Z,70
2023-05-20T20:30:24.601Z,70
2023-05-20T20:35:30.800Z,70
2023-05-20T20:40:19.610Z,71
2023-05-20T20:45:25.269Z,71
2023-05-20T20:50:32.128Z,71
2023-05-20T20:55:20.340Z,71
2023-05-20T21:00:28.299Z,72
2023-05-20T21:05:31.764Z,72
2023-05-20T21:10:21.256Z,73
2023-05-20T21:15:27.480Z,73
2023-05-20T21:20:33.853Z,73
2023-05-20T21:25:22.417Z,73
2023-05-20T21:30:28.949Z,74
2023-05-20T21:35:17.553Z,74
2023-05-20T21:40:24.935Z,74
2023-05-20T21:45:31.333Z,74
2023-05-20T21:50:19.366Z,75
2023-05-20T21:55:24.770Z,76
2023-05-20T22:00:35.166Z,76
2023-05-20T22:05:19.260Z,77
2023-05-20T22:10:25.885Z,77
2023-05-20T22:15:31.457Z,77
2023-05-20T22:20:21.740Z,78
2023-05-20T22:25:25.801Z,78
2023-05-20T22:30:32.338Z,78
2023-05-20T22:35:20.904Z,79
2023-05-20T22:40:27.184Z,79
2023-05-20T22:45:33.169Z,79
2023-05-20T22:50:22.516Z,79
2023-05-20T22:55:28.130Z,79
2023-05-20T23:00:17.714Z,79
2023-05-20T23:05:22.696Z,80
2023-05-20T23:10:29.182Z,80
2023-05-20T23:15:17.754Z,80
2023-05-20T23:20:25.215Z,81
2023-05-20T23:25:30.425Z,81
2023-05-20T23:30:19.913Z,81
2023-05-20T23:35:25.539Z,81
2023-05-20T23:40:31.660Z,81
2023-05-20T23:45:20.636Z,82
2023-05-20T23:50:27.164Z,82
2023-05-20T23:55:32.748Z,82
